createdAt,value
2023-03-27T00:01:28.083Z,96141.30
2023-03-27T00:03:56.206Z,96141.86
2023-03-27T00:06:25.090Z,96136.45
2023-03-27T00:08:53.797Z,96138.68
2023-03-27T00:11:24.912Z,96133.73
2023-03-27T00:13:56.184Z,96130.48
2023-03-27T00:16:27.021Z,96120.88
2023-03-27T00:18:56.180Z,96109.85
2023-03-27T00:21:26.185Z,96092.34
2023-03-27T00:23:54.633Z,96076.27
2023-03-27T00:26:23.214Z,96066.91
2023-03-27T00:28:53.015Z,96052.98
2023-03-27T00:31:21.746Z,96040.99
2023-03-27T00:33:50.034Z,96027.95
2023-03-27T00:36:18.150Z,96018.44
2023-03-27T00:38:46.328Z,96015.06
2023-03-27T00:41:14.937Z,96014.77
2023-03-27T00:43:44.225Z,96009.41
2023-03-27T00:46:15.657Z,96010.43
2023-03-27T00:48:48.034Z,96010.36
2023-03-27T00:51:18.357Z,96009.27
2023-03-27T00:53:48.993Z,96015.98
2023-03-27T00:56:18.049Z,96016.35
2023-03-27T00:58:54.249Z,96017.32
2023-03-27T01:01:23.923Z,96018.56
2023-03-27T01:03:54.110Z,96017.50
2023-03-27T01:06:22.671Z,96016.88
2023-03-27T01:08:51.144Z,96012.65
2023-03-27T01:11:25.367Z,96002.09
2023-03-27T01:13:56.091Z,95996.45
2023-03-27T01:16:28.159Z,95994.05
2023-03-27T01:19:36.676Z,96000.84
2023-03-27T01:22:23.194Z,95995.31
2023-03-27T01:25:22.592Z,95990.25
2023-03-27T01:28:19.668Z,96000.66
2023-03-27T01:30:50.681Z,96005.52
2023-03-27T01:33:43.531Z,96004.64
2023-03-27T01:36:35.361Z,96009.27
2023-03-27T01:39:06.710Z,96010.55
2023-03-27T01:41:37.774Z,96005.18
2023-03-27T01:44:17.921Z,95996.60
2023-03-27T01:46:53.647Z,95987.84
2023-03-27T01:49:30.541Z,95985.05
2023-03-27T01:52:01.598Z,95983.30
2023-03-27T01:54:42.273Z,95974.17
2023-03-27T01:57:25.426Z,95964.55
2023-03-27T02:00:19.472Z,95954.93
2023-03-27T02:02:59.882Z,95948.29
2023-03-27T02:05:36.708Z,95943.04
2023-03-27T02:08:38.045Z,95939.67
2023-03-27T02:11:15.639Z,95935.49
2023-03-27T02:13:55.702Z,95926.65
2023-03-27T02:16:33.880Z,95925.66
2023-03-27T02:19:11.908Z,95917.59
2023-03-27T02:21:40.209Z,95917.16
2023-03-27T02:24:09.106Z,95917.58
2023-03-27T02:26:38.077Z,95917.33
2023-03-27T02:29:21.912Z,95909.73
2023-03-27T02:31:58.834Z,95899.10
2023-03-27T02:34:36.471Z,95891.02
2023-03-27T02:37:19.212Z,95887.98
2023-03-27T02:40:44.734Z,95886.16
2023-03-27T02:43:43.175Z,95886.15
2023-03-27T02:46:17.002Z,95880.19
2023-03-27T02:48:55.003Z,95878.00
2023-03-27T02:51:28.519Z,95875.65
2023-03-27T02:54:03.451Z,95872.61
2023-03-27T02:56:38.477Z,95873.66
2023-03-27T02:59:35.605Z,95869.11
2023-03-27T03:02:08.136Z,95865.77
2023-03-27T03:05:02.149Z,95868.30
2023-03-27T03:07:38.304Z,95870.90
2023-03-27T03:10:12.792Z,95875.25
2023-03-27T03:12:40.964Z,95873.36
2023-03-27T03:15:10.673Z,95871.45
2023-03-27T03:17:39.153Z,95871.42
2023-03-27T03:20:09.798Z,95864.86
2023-03-27T03:22:42.256Z,95862.84
2023-03-27T03:25:13.209Z,95856.70
2023-03-27T03:27:41.479Z,95847.11
2023-03-27T03:30:16.939Z,95846.73
2023-03-27T03:33:01.700Z,95844.92
2023-03-27T03:35:30.022Z,95836.95
2023-03-27T03:37:59.576Z,95822.81
2023-03-27T03:40:28.155Z,95819.13
2023-03-27T03:42:58.529Z,95819.39
2023-03-27T03:45:31.442Z,95824.20
2023-03-27T03:48:01.246Z,95828.63
2023-03-27T03:50:29.756Z,95826.17
2023-03-27T03:52:57.930Z,95822.40
2023-03-27T03:55:26.111Z,95811.99
2023-03-27T03:57:54.283Z,95801.31
2023-03-27T04:00:27.194Z,95788.51
2023-03-27T04:02:56.034Z,95780.55
2023-03-27T04:05:24.740Z,95772.27
2023-03-27T04:07:54.264Z,95762.66
2023-03-27T04:10:41.738Z,95747.13
2023-03-27T04:13:23.870Z,95744.58
2023-03-27T04:16:01.952Z,95749.20
2023-03-27T04:18:39.539Z,95753.10
2023-03-27T04:21:19.743Z,95757.83
2023-03-27T04:23:51.393Z,95754.05
2023-03-27T04:26:27.436Z,95762.41
2023-03-27T04:29:14.063Z,95766.47
2023-03-27T04:32:01.129Z,95756.73
2023-03-27T04:35:05.190Z,95751.87
2023-03-27T04:37:49.133Z,95744.09
2023-03-27T04:40:46.246Z,95737.98
2023-03-27T04:43:16.519Z,95721.59
2023-03-27T04:45:48.308Z,95716.31
2023-03-27T04:48:16.457Z,95710.53
2023-03-27T04:50:49.569Z,95709.40
2023-03-27T04:53:31.326Z,95710.85
2023-03-27T04:55:59.605Z,95708.34
2023-03-27T04:58:28.541Z,95711.88
2023-03-27T05:00:57.938Z,95714.89
2023-03-27T05:04:05.090Z,95703.81
2023-03-27T05:06:51.600Z,95693.59
2023-03-27T05:09:20.695Z,95689.70
2023-03-27T05:11:50.820Z,95683.86
2023-03-27T05:14:21.875Z,95682.30
2023-03-27T05:16:52.463Z,95679.48
2023-03-27T05:19:21.282Z,95670.05
2023-03-27T05:21:57.944Z,95662.64
2023-03-27T05:24:27.248Z,95663.23
2023-03-27T05:26:56.134Z,95662.56
2023-03-27T05:29:24.517Z,95659.62
2023-03-27T05:32:01.183Z,95660.60
2023-03-27T05:34:50.893Z,95655.91
2023-03-27T05:37:19.530Z,95657.18
2023-03-27T05:40:07.086Z,95654.80
2023-03-27T05:42:35.255Z,95653.34
2023-03-27T05:45:03.956Z,95656.24
2023-03-27T05:47:32.121Z,95661.42
2023-03-27T05:50:00.699Z,95657.73
2023-03-27T05:52:29.078Z,95656.98
2023-03-27T05:54:57.761Z,95656.61
2023-03-27T05:57:26.139Z,95651.05
2023-03-27T05:59:57.182Z,95652.42
2023-03-27T06:02:25.574Z,95649.37
2023-03-27T06:04:59.349Z,95641.30
2023-03-27T06:07:39.073Z,95640.28
2023-03-27T06:10:13.740Z,95641.45
2023-03-27T06:13:12.253Z,95643.63
2023-03-27T06:16:00.983Z,95646.04
2023-03-27T06:18:48.472Z,95648.81
2023-03-27T06:21:17.954Z,95646.80
2023-03-27T06:23:46.500Z,95648.35
2023-03-27T06:26:15.671Z,95648.16
2023-03-27T06:28:44.287Z,95648.66
2023-03-27T06:31:15.056Z,95644.74
2023-03-27T06:34:18.705Z,95631.30
2023-03-27T06:37:04.482Z,95628.30
2023-03-27T06:39:37.660Z,95624.09
2023-03-27T06:42:05.777Z,95619.09
2023-03-27T06:44:36.723Z,95606.39
2023-03-27T06:47:26.717Z,95599.22
2023-03-27T06:50:31.741Z,95586.15
2023-03-27T06:53:00.328Z,95576.72
2023-03-27T06:55:44.531Z,95575.83
2023-03-27T06:58:18.784Z,95577.55
2023-03-27T07:00:49.750Z,95581.83
2023-03-27T07:03:20.683Z,95582.88
2023-03-27T07:06:08.943Z,95578.30
2023-03-27T07:09:01.357Z,95576.35
2023-03-27T07:11:31.701Z,95571.51
2023-03-27T07:14:03.043Z,95573.60
2023-03-27T07:16:31.766Z,95578.30
2023-03-27T07:19:02.572Z,95588.17
2023-03-27T07:21:32.188Z,95592.33
2023-03-27T07:24:00.945Z,95586.36
2023-03-27T07:26:34.040Z,95586.86
2023-03-27T07:29:13.169Z,95588.31
2023-03-27T07:31:55.359Z,95593.17
2023-03-27T07:34:51.613Z,95591.52
2023-03-27T07:37:29.204Z,95589.39
2023-03-27T07:40:40.164Z,95584.99
2023-03-27T07:43:37.894Z,95578.15
2023-03-27T07:46:06.860Z,95575.62
2023-03-27T07:48:36.092Z,95570.57
2023-03-27T07:51:14.192Z,95570.52
2023-03-27T07:53:49.277Z,95570.08
2023-03-27T07:56:23.658Z,95571.40
2023-03-27T07:59:08.026Z,95566.23
2023-03-27T08:01:36.434Z,95563.93
2023-03-27T08:04:05.744Z,95563.11
2023-03-27T08:06:35.256Z,95567.09
2023-03-27T08:09:05.903Z,95571.45
2023-03-27T08:11:36.522Z,95572.08
2023-03-27T08:14:06.125Z,95570.88
2023-03-27T08:16:36.655Z,95568.97
2023-03-27T08:19:06.366Z,95571.46
2023-03-27T08:21:38.722Z,95563.32
2023-03-27T08:24:07.695Z,95553.73
2023-03-27T08:26:36.469Z,95553.02
2023-03-27T08:29:10.218Z,95556.09
2023-03-27T08:31:39.725Z,95554.86
2023-03-27T08:34:08.773Z,95545.36
2023-03-27T08:36:44.999Z,95543.69
2023-03-27T08:39:13.922Z,95543.17
2023-03-27T08:41:55.302Z,95539.48
2023-03-27T08:44:36.327Z,95541.10
2023-03-27T08:47:28.669Z,95537.52
2023-03-27T08:50:16.784Z,95543.53
2023-03-27T08:52:51.236Z,95553.48
2023-03-27T08:55:34.532Z,95553.09
2023-03-27T08:58:38.267Z,95550.29
2023-03-27T09:01:36.640Z,95545.36
2023-03-27T09:04:50.875Z,95539.48
2023-03-27T09:07:32.707Z,95537.51
2023-03-27T09:10:38.912Z,95537.36
2023-03-27T09:13:27.231Z,95539.21
2023-03-27T09:16:13.168Z,95539.48
2023-03-27T09:19:12.591Z,95536.06
2023-03-27T09:21:55.147Z,95529.63
2023-03-27T09:24:44.715Z,95530.00
2023-03-27T09:27:37.873Z,95534.40
2023-03-27T09:30:33.577Z,95534.06
2023-03-27T09:33:12.001Z,95532.92
2023-03-27T09:35:42.760Z,95529.81
2023-03-27T09:38:35.751Z,95527.25
2023-03-27T09:41:14.612Z,95522.09
2023-03-27T09:43:58.568Z,95516.40
2023-03-27T09:46:28.788Z,95509.78
2023-03-27T09:49:04.122Z,95499.67
2023-03-27T09:51:39.362Z,95502.33
2023-03-27T09:54:14.470Z,95499.20
2023-03-27T09:57:11.481Z,95494.16
2023-03-27T10:00:14.846Z,95495.27
2023-03-27T10:02:42.949Z,95489.30
2023-03-27T10:05:22.266Z,95484.86
2023-03-27T10:07:54.531Z,95486.42
2023-03-27T10:10:58.133Z,95479.32
2023-03-27T10:13:48.164Z,95468.94
2023-03-27T10:16:21.047Z,95463.73
2023-03-27T10:19:00.590Z,95467.31
2023-03-27T10:21:39.097Z,95473.39
2023-03-27T10:24:19.232Z,95475.24
2023-03-27T10:27:25.475Z,95457.90
2023-03-27T10:30:27.555Z,95449.89
2023-03-27T10:32:59.920Z,95440.96
2023-03-27T10:35:44.940Z,95435.15
2023-03-27T10:38:33.411Z,95432.12
2023-03-27T10:41:17.650Z,95424.83
2023-03-27T10:43:57.861Z,95416.29
2023-03-27T10:46:29.203Z,95418.24
2023-03-27T10:49:07.001Z,95420.97
2023-03-27T10:51:46.120Z,95427.03
2023-03-27T10:54:43.307Z,95430.38
2023-03-27T10:57:23.337Z,95435.08
2023-03-27T11:00:01.989Z,95428.21
2023-03-27T11:03:00.313Z,95426.34
2023-03-27T11:05:40.035Z,95421.62
2023-03-27T11:08:41.782Z,95417.36
2023-03-27T11:11:38.697Z,95415.38
2023-03-27T11:14:18.784Z,95415.52
2023-03-27T11:16:56.062Z,95411.52
2023-03-27T11:19:54.742Z,95406.73
2023-03-27T11:22:39.496Z,95399.83
2023-03-27T11:25:23.217Z,95399.88
2023-03-27T11:28:12.767Z,95399.58
2023-03-27T11:30:56.075Z,95394.31
2023-03-27T11:33:37.314Z,95396.59
2023-03-27T11:36:33.031Z,95394.70
2023-03-27T11:39:45.441Z,95389.42
2023-03-27T11:42:24.518Z,95384.45
2023-03-27T11:44:53.574Z,95376.70
2023-03-27T11:47:56.172Z,95370.35
2023-03-27T11:50:48.404Z,95367.92
2023-03-27T11:53:24.352Z,95366.17
2023-03-27T11:56:20.488Z,95362.63
2023-03-27T11:59:04.518Z,95358.13
2023-03-27T12:01:51.824Z,95360.66
2023-03-27T12:04:40.991Z,95360.49
2023-03-27T12:07:36.366Z,95357.08
2023-03-27T12:10:19.006Z,95352.73
2023-03-27T12:13:24.302Z,95349.13
2023-03-27T12:16:03.857Z,95344.83
2023-03-27T12:19:05.892Z,95337.60
2023-03-27T12:25:35.987Z,95327.68
2023-03-27T12:28:49.474Z,95327.06
2023-03-27T12:31:47.301Z,95329.06
2023-03-27T12:34:51.013Z,95327.55
2023-03-27T12:37:31.201Z,95331.69
2023-03-27T12:40:01.254Z,95333.86
2023-03-27T12:42:48.598Z,95333.20
2023-03-27T12:45:23.541Z,95327.98
2023-03-27T12:48:10.135Z,95328.71
2023-03-27T12:50:54.786Z,95324.74
2023-03-27T12:53:26.934Z,95324.97
2023-03-27T12:56:19.474Z,95325.21
2023-03-27T12:58:53.040Z,95324.61
2023-03-27T13:01:51.685Z,95328.16
2023-03-27T13:04:47.996Z,95330.67
2023-03-27T13:07:54.944Z,95321.91
2023-03-27T13:11:02.361Z,95323.79
2023-03-27T13:13:34.127Z,95321.40
2023-03-27T13:16:26.633Z,95312.98
2023-03-27T13:19:10.614Z,95310.15
2023-03-27T13:22:37.415Z,95307.20
2023-03-27T13:25:20.590Z,95307.30
2023-03-27T13:27:49.042Z,95305.90
2023-03-27T13:30:48.439Z,95305.03
2023-03-27T13:33:36.020Z,95309.23
2023-03-27T13:36:12.464Z,95311.10
2023-03-27T13:39:11.361Z,95306.99
2023-03-27T13:41:45.898Z,95304.58
2023-03-27T13:44:35.482Z,95305.17
2023-03-27T13:47:26.509Z,95303.42
2023-03-27T13:50:23.427Z,95304.55
2023-03-27T13:53:08.093Z,95310.27
2023-03-27T13:56:30.030Z,95313.63
2023-03-27T13:59:22.542Z,95317.00
2023-03-27T14:01:54.923Z,95319.02
2023-03-27T14:04:34.187Z,95312.98
2023-03-27T14:07:41.990Z,95295.46
2023-03-27T14:10:34.732Z,95284.45
2023-03-27T14:13:29.221Z,95288.95
2023-03-27T14:16:28.249Z,95289.52
2023-03-27T14:19:31.010Z,95287.52
2023-03-27T14:22:01.305Z,95286.52
2023-03-27T14:25:04.737Z,95282.10
2023-03-27T14:27:49.195Z,95284.13
2023-03-27T14:30:22.291Z,95282.89
2023-03-27T14:33:03.431Z,95278.95
2023-03-27T14:35:38.363Z,95267.84
2023-03-27T14:38:22.115Z,95266.13
2023-03-27T14:40:52.469Z,95267.52
2023-03-27T14:43:27.913Z,95275.13
2023-03-27T14:46:03.394Z,95281.10
2023-03-27T14:48:42.593Z,95284.54
2023-03-27T14:51:19.568Z,95282.91
2023-03-27T14:53:51.141Z,95277.31
2023-03-27T14:56:37.356Z,95278.17
2023-03-27T14:59:26.810Z,95277.85
2023-03-27T15:02:02.054Z,95278.86
2023-03-27T15:04:32.884Z,95276.08
2023-03-27T15:07:15.592Z,95281.66
2023-03-27T15:10:06.270Z,95282.66
2023-03-27T15:12:54.012Z,95283.65
2023-03-27T15:15:29.835Z,95287.61
2023-03-27T15:17:59.927Z,95285.34
2023-03-27T15:20:31.820Z,95288.05
2023-03-27T15:23:00.941Z,95291.06
2023-03-27T15:25:33.442Z,95295.92
2023-03-27T15:28:07.011Z,95297.38
2023-03-27T15:30:43.637Z,95298.92
2023-03-27T15:33:20.396Z,95301.39
2023-03-27T15:36:03.850Z,95305.80
2023-03-27T15:39:14.675Z,95311.45
2023-03-27T15:42:05.704Z,95317.92
2023-03-27T15:44:39.727Z,95323.22
2023-03-27T15:47:40.181Z,95325.49
2023-03-27T15:50:34.933Z,95330.23
2023-03-27T15:53:26.448Z,95336.48
2023-03-27T15:56:19.315Z,95334.28
2023-03-27T15:59:35.738Z,95339.99
2023-03-27T16:02:45.522Z,95349.85
2023-03-27T16:05:20.756Z,95357.33
2023-03-27T16:08:28.266Z,95355.73
2023-03-27T16:12:01.758Z,95359.85
2023-03-27T16:15:14.164Z,95364.87
2023-03-27T16:18:05.077Z,95369.73
2023-03-27T16:21:00.031Z,95371.83
2023-03-27T16:24:11.713Z,95374.41
2023-03-27T16:27:25.597Z,95386.59
2023-03-27T16:30:32.025Z,95386.88
2023-03-27T16:33:45.811Z,95380.77
2023-03-27T16:36:52.451Z,95369.14
2023-03-27T16:40:31.489Z,95364.25
2023-03-27T16:44:00.383Z,95365.71
2023-03-27T16:46:41.358Z,95367.99
2023-03-27T16:49:42.006Z,95374.70
2023-03-27T16:52:49.700Z,95368.63
2023-03-27T16:56:00.505Z,95363.19
2023-03-27T16:59:04.950Z,95370.43
2023-03-27T17:02:22.935Z,95369.30
2023-03-27T17:05:04.843Z,95369.86
2023-03-27T17:08:23.284Z,95368.38
2023-03-27T17:11:08.286Z,95376.02
2023-03-27T17:13:43.634Z,95375.33
2023-03-27T17:16:29.924Z,95377.11
2023-03-27T17:19:26.637Z,95375.87
2023-03-27T17:22:34.495Z,95377.25
2023-03-27T17:25:07.632Z,95379.96
2023-03-27T17:27:37.343Z,95376.52
2023-03-27T17:30:30.506Z,95375.88
2023-03-27T17:33:08.515Z,95376.23
2023-03-27T17:35:41.027Z,95377.63
2023-03-27T17:38:20.955Z,95383.04
2023-03-27T17:40:51.735Z,95386.59
2023-03-27T17:43:31.620Z,95385.53
2023-03-27T17:46:09.135Z,95382.38
2023-03-27T17:48:52.296Z,95378.80
2023-03-27T17:51:41.817Z,95378.99
2023-03-27T17:54:10.532Z,95385.23
2023-03-27T17:57:10.083Z,95389.89
2023-03-27T17:59:38.800Z,95390.36
2023-03-27T18:02:07.978Z,95391.70
2023-03-27T18:04:39.041Z,95395.13
2023-03-27T18:07:10.116Z,95398.74
2023-03-27T18:09:49.223Z,95400.34
2023-03-27T18:12:21.279Z,95405.95
2023-03-27T18:15:14.655Z,95406.42
2023-03-27T18:17:43.162Z,95408.30
2023-03-27T18:20:11.919Z,95409.17
2023-03-27T18:22:42.606Z,95410.07
2023-03-27T18:25:11.657Z,95408.73
2023-03-27T18:28:00.414Z,95412.48
2023-03-27T18:30:38.614Z,95413.23
2023-03-27T18:33:30.051Z,95412.83
2023-03-27T18:36:12.213Z,95411.26
2023-03-27T18:38:42.010Z,95411.46
2023-03-27T18:41:16.699Z,95413.68
2023-03-27T18:43:47.648Z,95414.13
2023-03-27T18:46:19.371Z,95416.96
2023-03-27T18:48:50.608Z,95418.70
2023-03-27T18:51:29.561Z,95417.45
2023-03-27T18:54:20.956Z,95417.97
2023-03-27T18:56:50.089Z,95416.12
2023-03-27T18:59:18.352Z,95418.54
2023-03-27T19:01:46.733Z,95421.10
2023-03-27T19:04:23.694Z,95428.54
2023-03-27T19:06:55.455Z,95433.30
2023-03-27T19:09:54.346Z,95434.83
2023-03-27T19:12:26.417Z,95436.34
2023-03-27T19:15:23.985Z,95440.25
2023-03-27T19:18:11.581Z,95443.56
2023-03-27T19:21:12.954Z,95448.56
2023-03-27T19:23:57.428Z,95446.46
2023-03-27T19:26:53.971Z,95447.35
2023-03-27T19:29:25.918Z,95447.12
2023-03-27T19:31:59.267Z,95446.19
2023-03-27T19:34:41.878Z,95446.89
2023-03-27T19:37:23.940Z,95447.23
2023-03-27T19:40:19.657Z,95443.75
2023-03-27T19:42:50.899Z,95441.83
2023-03-27T19:45:39.851Z,95441.04
2023-03-27T19:48:21.469Z,95441.88
2023-03-27T19:51:04.022Z,95440.58
2023-03-27T19:53:55.688Z,95438.13
2023-03-27T19:57:01.054Z,95432.39
2023-03-27T19:59:31.388Z,95433.59
2023-03-27T20:02:23.042Z,95431.45
2023-03-27T20:05:38.097Z,95436.15
2023-03-27T20:08:32.028Z,95435.85
2023-03-27T20:11:39.390Z,95443.23
2023-03-27T20:14:41.188Z,95447.11
2023-03-27T20:17:53.373Z,95447.23
2023-03-27T20:20:33.378Z,95446.33
2023-03-27T20:23:15.341Z,95448.85
2023-03-27T20:26:44.187Z,95452.70
2023-03-27T20:30:03.406Z,95470.02
2023-03-27T20:33:07.200Z,95497.39
2023-03-27T20:35:49.148Z,95524.03
2023-03-27T20:38:32.934Z,95543.26
2023-03-27T20:42:03.289Z,95562.67
2023-03-27T20:45:16.520Z,95585.27
2023-03-27T20:47:47.358Z,95602.44
2023-03-27T20:50:42.895Z,95611.63
2023-03-27T20:53:26.198Z,95626.70
2023-03-27T20:56:03.552Z,95626.39
2023-03-27T20:58:37.581Z,95633.71
2023-03-27T21:01:10.323Z,95640.80
2023-03-27T21:03:50.051Z,95650.39
2023-03-27T21:06:20.665Z,95655.11
2023-03-27T21:08:59.352Z,95661.45
2023-03-27T21:11:27.465Z,95666.63
2023-03-27T21:13:58.495Z,95669.67
2023-03-27T21:16:27.549Z,95675.59
2023-03-27T21:18:56.176Z,95676.79
2023-03-27T21:21:24.892Z,95676.38
2023-03-27T21:24:03.379Z,95668.89
2023-03-27T21:26:31.518Z,95669.60
2023-03-27T21:28:59.987Z,95673.63
2023-03-27T21:31:39.136Z,95680.56
2023-03-27T21:34:16.979Z,95687.00
2023-03-27T21:36:45.899Z,95688.75
2023-03-27T21:39:14.241Z,95693.90
2023-03-27T21:41:42.823Z,95697.09
2023-03-27T21:44:17.501Z,95701.63
2023-03-27T21:46:46.573Z,95701.87
2023-03-27T21:49:25.784Z,95704.23
2023-03-27T21:51:54.235Z,95710.02
2023-03-27T21:54:23.206Z,95713.04
2023-03-27T21:56:57.280Z,95713.85
2023-03-27T21:59:43.392Z,95716.42
2023-03-27T22:02:12.058Z,95723.66
2023-03-27T22:04:40.629Z,95727.08
2023-03-27T22:07:12.179Z,95730.62
2023-03-27T22:09:54.383Z,95740.95
2023-03-27T22:12:23.478Z,95747.20
2023-03-27T22:14:52.508Z,95753.60
2023-03-27T22:17:34.841Z,95760.05
2023-03-27T22:20:26.358Z,95771.89
2023-03-27T22:22:57.855Z,95776.61
2023-03-27T22:25:26.110Z,95783.17
2023-03-27T22:28:03.787Z,95789.96
2023-03-27T22:30:32.108Z,95798.23
2023-03-27T22:33:00.988Z,95807.45
2023-03-27T22:35:29.568Z,95813.17
2023-03-27T22:38:01.449Z,95812.00
2023-03-27T22:41:29.211Z,95816.67
2023-03-27T22:44:00.330Z,95830.07
2023-03-27T22:46:49.067Z,95835.60
2023-03-27T22:49:17.609Z,95843.02
2023-03-27T22:52:01.842Z,95850.48
2023-03-27T22:54:56.336Z,95855.66
2023-03-27T22:57:24.814Z,95864.98
2023-03-27T22:59:53.822Z,95867.31
2023-03-27T23:02:22.248Z,95863.34
2023-03-27T23:05:13.731Z,95866.80
2023-03-27T23:07:42.410Z,95871.25
2023-03-27T23:10:33.615Z,95877.58
2023-03-27T23:13:15.102Z,95886.52
2023-03-27T23:15:43.476Z,95886.20
2023-03-27T23:18:25.584Z,95889.69
2023-03-27T23:21:06.072Z,95893.24
2023-03-27T23:23:45.503Z,95899.20
2023-03-27T23:26:14.153Z,95903.89
2023-03-27T23:28:45.517Z,95903.42
2023-03-27T23:31:57.399Z,95906.56
2023-03-27T23:34:26.214Z,95909.79
2023-03-27T23:36:58.088Z,95921.92
2023-03-27T23:39:42.151Z,95923.67
2023-03-27T23:42:10.700Z,95929.89
2023-03-27T23:45:01.833Z,95933.25
2023-03-27T23:47:36.336Z,95940.95
2023-03-27T23:50:05.784Z,95949.17
2023-03-27T23:52:51.639Z,95948.61
2023-03-27T23:55:30.778Z,95958.52
2023-03-27T23:58:12.676Z,95968.66
